DW9590 Weather Reports


Display with metric or nautical units.
time (UTC)temp
F
wind
direction
speed
MPH
gust
MPH
rain 1hr
in
rain 24hr
in
rain mn
in
humidity
%
barometer
mb
20210623002003 83 95 0.0 2.0 0.00 0.02 0.00 67 907.6
20210623001503 83 151 0.0 5.0 0.00 0.02 0.00 67 907.4
20210623001003 83 161 0.0 5.0 0.00 0.02 0.00 66 907.5
20210623000502 83 171 0.0 3.0 0.00 0.02 0.00 65 907.4
20210623000003 83 167 0.0 3.0 0.00 0.02 0.00 66 907.4
20210622235503 83 83 0.0 3.0 0.00 0.02 0.00 65 907.4
20210622235003 84 114 0.0 3.0 0.00 0.02 0.00 64 907.5
20210622234503 84 132 2.0 5.0 0.00 0.02 0.00 63 907.5
20210622234003 84 109 1.0 7.0 0.00 0.02 0.00 65 907.5
20210622233503 84 116 1.0 5.0 0.00 0.02 0.00 64 907.5
20210622233003 85 142 3.0 5.0 0.00 0.02 0.00 64 907.6
20210622232504 85 126 3.0 6.0 0.00 0.02 0.00 63 907.6
20210622232004 85 142 1.0 5.0 0.00 0.02 0.00 64 907.6
20210622231504 85 101 0.0 6.0 0.00 0.02 0.00 63 907.7
20210622231004 85 113 2.0 7.0 0.00 0.02 0.00 63 907.5
20210622230503 85 136 1.0 5.0 0.00 0.02 0.00 64 907.5
20210622230002 85 154 1.0 5.0 0.00 0.02 0.00 62 907.5
20210622225503 85 99 4.0 8.0 0.00 0.02 0.00 62 907.6
20210622225004 85 142 2.0 7.0 0.00 0.02 0.00 61 907.4
20210622224503 86 117 2.0 5.0 0.00 0.02 0.00 62 907.4
20210622224003 85 94 2.0 7.0 0.00 0.02 0.00 62 907.6
20210622223503 85 102 2.0 7.0 0.00 0.02 0.00 63 907.9
20210622223004 85 157 2.0 6.0 0.00 0.02 0.00 62 907.9
20210622222503 86 152 5.0 8.0 0.00 0.02 0.00 60 907.9
20210622222004 86 142 3.0 6.0 0.00 0.02 0.00 60 907.9
20210622221503 86 94 2.0 5.0 0.00 0.02 0.00 63 907.9
20210622221003 86 10 1.0 3.0 0.00 0.02 0.00 62 908.1
20210622220503 86 44 3.0 6.0 0.00 0.02 0.00 60 908.2
20210622220003 86 100 2.0 5.0 0.00 0.02 0.00 61 908.1
20210622215503 86 151 0.0 3.0 0.00 0.02 0.00 60 908.4
20210622215003 86 159 1.0 5.0 0.00 0.02 0.00 61 908.5
20210622214503 86 144 2.0 6.0 0.00 0.02 0.00 60 908.5
20210622214004 86 101 2.0 7.0 0.00 0.02 0.00 62 908.5
20210622213504 86 106 3.0 6.0 0.00 0.02 0.00 61 908.6
20210622213003 86 76 1.0 3.0 0.00 0.02 0.00 60 908.9
20210622212503 86 103 1.0 5.0 0.00 0.02 0.00 59 908.9
20210622212003 86 102 2.0 5.0 0.00 0.02 0.00 62 908.9
20210622211503 86 90 2.0 5.0 0.00 0.02 0.00 61 908.9
20210622211003 86 143 2.0 6.0 0.00 0.02 0.00 62 908.9
20210622210503 85 146 1.0 7.0 0.00 0.02 0.00 60 909.1
20210622210003 86 89 2.0 6.0 0.00 0.02 0.00 63 909.1
20210622205503 86 118 2.0 5.0 0.00 0.02 0.00 62 909.1
20210622205003 86 136 1.0 3.0 0.00 0.02 0.00 62 909.1
20210622204503 86 280 0.0 3.0 0.00 0.02 0.00 64 909.1
20210622204003 85 80 2.0 5.0 0.00 0.02 0.00 62 909.3
20210622203503 85 90 1.0 6.0 0.00 0.02 0.00 63 909.2
20210622203003 85 108 4.0 8.0 0.00 0.02 0.00 62 909.2
20210622202503 85 91 1.0 7.0 0.00 0.02 0.00 62 909.2
20210622202003 85 142 2.0 5.0 0.00 0.02 0.00 63 909.3
20210622201503 85 328 1.0 3.0 0.00 0.02 0.00 66 909.3
20210622201003 84 182 0.0 2.0 0.00 0.02 0.00 64 909.3
20210622200503 84 103 2.0 7.0 0.00 0.02 0.00 62 909.2
20210622200003 84 206 0.0 3.0 0.00 0.02 0.00 63 909.4
20210622195504 84 203 2.0 7.0 0.00 0.02 0.00 63 909.6
20210622195004 84 97 3.0 5.0 0.00 0.02 0.00 64 909.6
20210622194503 83 132 2.0 5.0 0.00 0.02 0.00 64 909.6
20210622194003 84 40 3.0 7.0 0.00 0.02 0.00 64 909.5
20210622193503 83 135 3.0 6.0 0.00 0.02 0.00 63 909.5
20210622193003 83 85 0.0 6.0 0.00 0.02 0.00 64 909.5
20210622192504 83 101 2.0 5.0 0.00 0.02 0.00 64 909.6
20210622192004 83 84 3.0 7.0 0.00 0.02 0.00 65 909.6
20210622191503 83 99 3.0 5.0 0.00 0.02 0.00 64 909.4
20210622191003 83 168 4.0 9.0 0.00 0.02 0.00 62 909.8
20210622190503 83 97 3.0 6.0 0.00 0.02 0.00 63 909.8
20210622190003 83 128 2.0 8.0 0.00 0.02 0.00 62 909.8
20210622185503 83 93 0.0 5.0 0.00 0.02 0.00 64 909.8
20210622185004 82 48 1.0 6.0 0.00 0.02 0.00 66 909.8
20210622184504 82 195 2.0 9.0 0.00 0.02 0.00 62 909.8
20210622184004 82 125 5.0 9.0 0.00 0.02 0.00 63 910.1
20210622183503 82 156 4.0 7.0 0.00 0.02 0.00 62 910.1
20210622183004 82 160 5.0 12.0 0.00 0.02 0.00 62 910.1
20210622182503 82 131 5.0 10.0 0.00 0.02 0.00 62 910.0
20210622182004 82 114 3.0 8.0 0.00 0.02 0.00 63 910.0
20210622181504 82 90 2.0 9.0 0.00 0.02 0.00 62 909.8
20210622181004 82 82 3.0 8.0 0.00 0.02 0.00 62 909.8
20210622180503 82 93 3.0 9.0 0.00 0.02 0.00 63 909.8
20210622180003 82 41 2.0 7.0 0.00 0.02 0.00 62 909.9
20210622175503 82 98 5.0 10.0 0.00 0.02 0.00 62 909.9
20210622175003 81 89 4.0 8.0 0.00 0.02 0.00 66 909.9
20210622174503 81 103 3.0 7.0 0.00 0.02 0.00 65 909.5
20210622174003 81 83 3.0 9.0 0.00 0.02 0.00 66 909.7
20210622173504 81 100 4.0 10.0 0.00 0.02 0.00 64 909.7
20210622173004 81 128 3.0 6.0 0.00 0.02 0.00 64 909.9
20210622172503 81 88 4.0 7.0 0.00 0.02 0.00 64 909.9
20210622172004 81 79 1.0 7.0 0.00 0.02 0.00 65 909.9
20210622171503 81 108 3.0 7.0 0.00 0.02 0.00 65 909.7
20210622171003 80 63 3.0 8.0 0.00 0.02 0.00 66 909.8
20210622170504 80 65 2.0 7.0 0.00 0.02 0.00 67 910.2
20210622170004 80 68 2.0 8.0 0.00 0.02 0.00 68 910.2
20210622165503 80 103 5.0 9.0 0.00 0.02 0.00 65 910.2
20210622165004 79 104 2.0 7.0 0.00 0.02 0.00 67 910.2
20210622164503 79 98 3.0 6.0 0.00 0.02 0.00 68 910.1
20210622164003 79 49 2.0 6.0 0.00 0.02 0.00 67 910.1
20210622163503 79 75 2.0 6.0 0.00 0.02 0.00 69 910.3
20210622163003 78 93 1.0 7.0 0.00 0.02 0.00 69 910.4
20210622162503 78 114 6.0 10.0 0.00 0.02 0.00 69 910.4
20210622162004 77 95 3.0 8.0 0.00 0.02 0.00 71 910.4
20210622161503 77 74 2.0 8.0 0.00 0.02 0.00 72 910.4
20210622161003 76 98 1.0 3.0 0.00 0.02 0.00 72 910.2
20210622160503 76 89 3.0 7.0 0.00 0.02 0.00 72 910.2
20210622160003 76 101 2.0 6.0 0.00 0.02 0.00 72 910.2
20210622155503 76 90 3.0 5.0 0.00 0.02 0.00 71 910.2
20210622155003 76 112 4.0 12.0 0.00 0.02 0.00 70 910.2
20210622154503 76 100 4.0 7.0 0.00 0.02 0.00 70 910.2
20210622154003 76 103 2.0 7.0 0.00 0.02 0.00 70 910.3
20210622153503 76 111 3.0 9.0 0.00 0.02 0.00 69 909.9
20210622153004 76 117 2.0 5.0 0.00 0.02 0.00 71 910.0
20210622152503 76 74 1.0 5.0 0.00 0.02 0.00 73 910.0
20210622152003 76 109 1.0 7.0 0.00 0.02 0.00 71 910.0
20210622151503 76 122 1.0 6.0 0.00 0.02 0.00 71 910.0
20210622151003 75 120 3.0 8.0 0.00 0.02 0.00 71 910.0
20210622150503 75 96 4.0 8.0 0.00 0.02 0.00 72 910.0
20210622150004 75 67 3.0 7.0 0.00 0.02 0.00 71 909.9
20210622145502 74 36 4.0 8.0 0.00 0.02 0.00 71 909.9
20210622145003 74 64 2.0 7.0 0.00 0.02 0.00 71 909.9
20210622144503 74 97 2.0 9.0 0.00 0.02 0.00 72 909.7
20210622144003 75 75 2.0 7.0 0.00 0.02 0.00 71 909.7
20210622143503 75 101 3.0 6.0 0.00 0.02 0.00 73 909.7
20210622143004 74 109 3.0 8.0 0.00 0.02 0.00 73 909.7
20210622142503 74 83 4.0 10.0 0.00 0.02 0.00 73 909.7
20210622142003 73 94 2.0 6.0 0.00 0.02 0.00 74 909.7
20210622141503 73 63 2.0 8.0 0.00 0.02 0.00 75 909.7
20210622141003 73 80 2.0 8.0 0.00 0.02 0.00 74 909.4
20210622140503 73 83 4.0 9.0 0.00 0.02 0.00 75 909.3
20210622140003 73 95 3.0 8.0 0.00 0.02 0.00 76 909.3
20210622135503 72 99 3.0 13.0 0.00 0.02 0.00 75 909.3
20210622135004 72 72 3.0 10.0 0.00 0.02 0.00 76 909.1
20210622134503 72 51 3.0 8.0 0.00 0.02 0.00 77 909.1
20210622134003 72 105 4.0 12.0 0.00 0.02 0.00 78 909.1
20210622133503 71 64 1.0 8.0 0.00 0.02 0.00 79 909.1
20210622133003 71 79 3.0 13.0 0.00 0.02 0.00 78 909.2
20210622132503 71 64 2.0 8.0 0.00 0.02 0.00 78 909.2
20210622132003 71 83 2.0 5.0 0.00 0.02 0.00 79 909.2
20210622131503 71 86 2.0 6.0 0.00 0.02 0.00 79 909.2
20210622131004 70 105 1.0 7.0 0.00 0.02 0.00 79 909.2
20210622130503 70 87 3.0 8.0 0.00 0.02 0.00 79 909.0
20210622130003 70 93 5.0 8.0 0.00 0.02 0.00 79 909.0
20210622125503 70 34 3.0 8.0 0.00 0.02 0.00 79 909.0
20210622125003 70 77 2.0 6.0 0.00 0.02 0.00 79 909.0
20210622124503 70 47 2.0 3.0 0.00 0.02 0.00 79 909.0
20210622124003 70 67 1.0 5.0 0.00 0.02 0.00 79 909.0
20210622123503 70 99 0.0 3.0 0.00 0.02 0.00 80 909.0
20210622123004 70 80 3.0 6.0 0.00 0.02 0.00 79 909.0
20210622122503 70 99 1.0 6.0 0.00 0.02 0.00 79 909.0
20210622122003 70 36 3.0 7.0 0.00 0.02 0.00 79 908.7
20210622121504 70 117 3.0 6.0 0.00 0.02 0.00 80 908.8
20210622121004 70 89 2.0 7.0 0.00 0.02 0.00 80 908.8
20210622120503 70 113 2.0 10.0 0.00 0.02 0.00 80 908.7
20210622120004 70 101 1.0 6.0 0.00 0.02 0.00 81 908.7
20210622115503 70 95 3.0 8.0 0.00 0.02 0.00 81 908.7
20210622115003 70 106 4.0 10.0 0.00 0.02 0.00 82 908.5
20210622114503 70 83 2.0 3.0 0.00 0.02 0.00 84 908.5
20210622114004 70 59 5.0 12.0 0.00 0.02 0.00 84 908.5
20210622113503 70 80 3.0 7.0 0.00 0.02 0.00 86 908.5
20210622113004 70 96 3.0 7.0 0.00 0.02 0.00 86 908.5
20210622112503 70 44 1.0 3.0 0.00 0.02 0.00 86 908.5
20210622112003 70 87 1.0 5.0 0.00 0.02 0.00 86 908.5
20210622111504 70 94 2.0 9.0 0.00 0.02 0.00 86 908.4
20210622111004 71 90 1.0 6.0 0.00 0.02 0.00 87 908.4
20210622110503 71 116 3.0 6.0 0.00 0.02 0.00 87 908.2
20210622110003 71 93 2.0 9.0 0.00 0.02 0.00 88 908.2
20210622105503 71 90 3.0 7.0 0.00 0.02 0.00 88 908.2
20210622105003 71 127 3.0 7.0 0.00 0.02 0.00 88 908.1
20210622104503 71 67 2.0 10.0 0.00 0.02 0.00 89 908.1
20210622104003 71 81 3.0 7.0 0.00 0.02 0.00 89 908.0
20210622103503 71 81 2.0 8.0 0.00 0.02 0.00 90 907.9
20210622103004 71 103 3.0 9.0 0.00 0.02 0.00 90 907.8
20210622102503 71 99 2.0 7.0 0.00 0.02 0.00 91 907.8
20210622102003 71 70 2.0 12.0 0.00 0.02 0.00 91 907.7
20210622101504 71 100 2.0 9.0 0.00 0.02 0.00 91 907.7
20210622101004 71 94 1.0 5.0 0.00 0.02 0.00 91 907.7
20210622100503 71 39 3.0 7.0 0.00 0.02 0.00 91 907.7
20210622100003 71 75 3.0 8.0 0.00 0.02 0.00 92 908.0
20210622095504 71 34 2.0 5.0 0.00 0.02 0.00 92 908.0
20210622095004 71 24 1.0 3.0 0.00 0.02 0.00 92 908.0
20210622094504 71 351 1.0 3.0 0.00 0.02 0.00 92 908.0
20210622094004 71 93 1.0 3.0 0.00 0.02 0.00 92 908.2
20210622093503 71 113 1.0 5.0 0.00 0.02 0.00 92 908.0
20210622093003 71 35 2.0 8.0 0.00 0.02 0.00 92 908.2
20210622092504 71 95 2.0 10.0 0.00 0.02 0.00 92 908.2
20210622092004 71 87 2.0 6.0 0.00 0.02 0.00 92 908.2
20210622091503 71 43 1.0 7.0 0.00 0.02 0.00 93 908.1
20210622091003 71 87 2.0 7.0 0.00 0.02 0.00 93 908.1
20210622090504 71 74 2.0 6.0 0.00 0.02 0.00 93 907.7
20210622090004 71 106 1.0 5.0 0.00 0.02 0.00 93 907.7
20210622085504 71 74 0.0 2.0 0.00 0.02 0.00 93 907.8
20210622085004 71 98 2.0 6.0 0.00 0.02 0.00 93 907.6
20210622084503 71 94 2.0 5.0 0.00 0.02 0.00 93 907.6
20210622084003 71 68 2.0 5.0 0.00 0.02 0.00 93 907.7
20210622083504 71 62 0.0 3.0 0.00 0.02 0.00 93 907.7
20210622083004 71 54 1.0 5.0 0.00 0.02 0.00 93 907.6
20210622082503 71 104 1.0 2.0 0.00 0.02 0.00 93 907.6
20210622082003 71 106 1.0 5.0 0.00 0.02 0.00 93 907.6
20210622081503 71 44 1.0 3.0 0.00 0.02 0.00 93 907.6
20210622081004 72 90 2.0 6.0 0.00 0.02 0.00 93 907.6
20210622080503 72 92 1.0 3.0 0.00 0.02 0.00 93 907.7
20210622080003 72 62 0.0 2.0 0.00 0.02 0.00 92 907.7
20210622075503 72 44 1.0 3.0 0.00 0.02 0.00 92 907.8
20210622075003 72 35 1.0 3.0 0.00 0.02 0.00 92 907.6
20210622074503 72 55 1.0 2.0 0.00 0.02 0.00 92 907.7
20210622074004 72 37 1.0 3.0 0.00 0.02 0.00 92 907.7
20210622073503 72 130 0.0 3.0 0.00 0.02 0.00 92 907.7
20210622073003 72 86 1.0 3.0 0.00 0.02 0.00 92 907.7
20210622072504 72 65 1.0 3.0 0.00 0.02 0.00 92 907.6
20210622072003 72 102 2.0 7.0 0.00 0.02 0.00 92 907.6
20210622071503 72 116 2.0 5.0 0.00 0.02 0.00 92 907.3
20210622071003 72 93 1.0 5.0 0.00 0.02 0.00 92 907.3
20210622070503 72 16 1.0 8.0 0.00 0.02 0.00 92 907.3
20210622070003 72 90 2.0 6.0 0.00 0.02 0.00 92 907.3
20210622065503 72 123 2.0 5.0 0.00 0.02 0.00 91 907.3
20210622065003 72 96 1.0 6.0 0.00 0.02 0.00 91 907.3
20210622064503 73 81 2.0 9.0 0.00 0.02 0.00 91 907.3
20210622064003 73 81 0.0 3.0 0.00 0.02 0.00 91 907.6
20210622063504 73 121 1.0 5.0 0.00 0.02 0.00 91 907.6
20210622063003 73 59 0.0 3.0 0.00 0.02 0.00 91 907.7
20210622062503 73 60 1.0 2.0 0.00 0.02 0.00 90 908.0
20210622062003 73 207 0.0 2.0 0.00 0.02 0.00 90 908.0
20210622061503 73 141 0.0 2.0 0.00 0.02 0.00 90 908.0
20210622061003 73 141 0.0 1.0 0.00 0.02 0.00 90 908.0
20210622060502 73 140 0.0 3.0 0.00 0.02 0.00 90 908.0
20210622060003 73 275 0.0 2.0 0.00 0.02 0.00 90 907.8
20210622055504 73 275 1.0 5.0 0.00 0.02 0.00 90 907.8
20210622055003 73 50 0.0 2.0 0.00 0.02 0.00 90 907.6
20210622054503 73 60 3.0 9.0 0.00 0.02 0.00 89 907.9
20210622054003 74 106 2.0 3.0 0.00 0.02 0.00 89 908.2
20210622053503 74 115 1.0 3.0 0.00 0.02 0.00 89 908.2
20210622053003 74 349 0.0 3.0 0.00 0.02 0.00 89 908.1
20210622052503 74 344 0.0 1.0 0.00 0.02 0.00 90 908.1
20210622052004 74 344 0.0 3.0 0.00 0.02 0.00 89 908.0
20210622051503 74 335 0.0 2.0 0.00 0.02 0.00 89 908.0
20210622051003 74 333 1.0 5.0 0.00 0.02 0.00 89 908.0
20210622050503 74 105 1.0 5.0 0.00 0.02 0.00 90 908.5
20210622050003 74 97 4.0 8.0 0.00 0.02 0.00 89 908.5
20210622045503 74 96 1.0 6.0 0.00 0.02 0.02 89 908.5
20210622045003 74 60 0.0 3.0 0.00 0.02 0.02 89 908.6
20210622044503 74 10 1.0 3.0 0.00 0.02 0.02 90 908.6
20210622044004 74 276 1.0 3.0 0.00 0.02 0.02 90 908.6
20210622043503 74 265 1.0 3.0 0.00 0.02 0.02 90 908.6
20210622043004 75 93 1.0 2.0 0.00 0.02 0.02 90 908.3
20210622042502 75 94 1.0 2.0 0.00 0.02 0.02 90 908.3
20210622042003 75 93 1.0 3.0 0.00 0.02 0.02 90 908.2
20210622041503 75 107 0.0 1.0 0.00 0.02 0.02 90 907.9
20210622041004 75 107 0.0 2.0 0.00 0.02 0.02 90 907.7
20210622040503 75 107 0.0 1.0 0.00 0.02 0.02 90 907.7
20210622040003 75 107 1.0 3.0 0.00 0.02 0.02 89 907.8
20210622035503 75 80 0.0 3.0 0.00 0.02 0.02 89 907.9
20210622035003 75 79 1.0 3.0 0.00 0.02 0.02 89 907.5
20210622034503 75 74 1.0 2.0 0.00 0.02 0.02 88 907.5
20210622034003 75 15 0.0 2.0 0.00 0.02 0.02 88 907.5
20210622033503 76 19 0.0 2.0 0.00 0.02 0.02 89 907.7
20210622033003 76 19 1.0 2.0 0.00 0.02 0.02 89 907.7
20210622032504 76 117 0.0 1.0 0.00 0.02 0.02 89 907.7
20210622032003 76 117 1.0 2.0 0.00 0.02 0.02 89 907.7
20210622031503 76 117 0.0 2.0 0.01 0.02 0.02 90 907.8
20210622031004 76 118 0.0 0.0 0.01 0.02 0.02 90 907.4
20210622030504 76 118 0.0 0.0 0.01 0.02 0.02 90 907.3
20210622030003 76 118 0.0 0.0 0.01 0.02 0.02 90 907.3
20210622025503 77 119 1.0 2.0 0.01 0.02 0.02 90 907.3
20210622025004 77 122 0.0 1.0 0.01 0.02 0.02 90 907.3
20210622024504 77 122 0.0 2.0 0.02 0.02 0.02 90 907.2
20210622024004 77 122 1.0 2.0 0.02 0.02 0.02 90 906.8
20210622023503 77 123 0.0 1.0 0.02 0.02 0.02 90 906.7
20210622023004 78 123 0.0 2.0 0.02 0.02 0.02 89 906.2
20210622022504 78 125 1.0 3.0 0.02 0.02 0.02 89 906.2
20210622022003 78 111 1.0 3.0 0.02 0.02 0.02 89 906.2
20210622021504 78 79 0.0 2.0 0.01 0.01 0.01 88 905.9
20210622021004 79 78 1.0 3.0 0.01 0.01 0.01 88 905.9
20210622020503 79 5 0.0 3.0 0.01 0.01 0.01 88 905.9
20210622020003 79 339 0.0 3.0 0.01 0.01 0.01 87 905.7
20210622015503 80 52 0.0 1.0 0.01 0.01 0.01 87 905.7
20210622015003 80 54 1.0 2.0 0.01 0.01 0.01 87 905.7
20210622014504 80 50 2.0 3.0 0.00 0.00 0.00 86 905.6
20210622014003 81 96 1.0 3.0 0.00 0.00 0.00 84 905.6
20210622013504 81 64 2.0 7.0 0.00 0.00 0.00 83 905.6
20210622013004 81 55 1.0 5.0 0.00 0.00 0.00 82 905.7
20210622012503 81 85 1.0 5.0 0.00 0.00 0.00 82 905.7
20210622012004 81 113 2.0 8.0 0.00 0.00 0.00 81 905.7
20210622011503 82 108 3.0 7.0 0.00 0.00 0.00 81 905.4
20210622011004 82 89 4.0 7.0 0.00 0.00 0.00 80 905.4
20210622010503 82 115 2.0 5.0 0.00 0.00 0.00 80 905.5
20210622010004 82 102 2.0 7.0 0.00 0.00 0.00 79 905.1
20210622005503 82 42 3.0 7.0 0.00 0.00 0.00 78 905.1
20210622005004 82 56 2.0 9.0 0.00 0.00 0.00 78 905.1
20210622004503 83 80 4.0 10.0 0.00 0.00 0.00 77 904.8
20210622004003 83 81 2.0 12.0 0.00 0.00 0.00 77 904.8
20210622003504 83 96 3.0 7.0 0.00 0.00 0.00 76 904.6
20210622003004 84 42 2.0 10.0 0.00 0.00 0.00 77 904.5
20210622002504 84 140 1.0 8.0 0.00 0.00 0.00 77 904.5